sensor_id;sensor_type;location;lat;lon;timestamp;temperature;humidity
32706;DHT22;19094;50.972;3.538;2023-11-21T00:00:15;14.20;76.80
32706;DHT22;19094;50.972;3.538;2023-11-21T00:02:43;14.10;76.70
32706;DHT22;19094;50.972;3.538;2023-11-21T00:05:10;14.10;76.80
32706;DHT22;19094;50.972;3.538;2023-11-21T00:07:37;14.10;76.70
32706;DHT22;19094;50.972;3.538;2023-11-21T00:10:03;14.10;76.80
32706;DHT22;19094;50.972;3.538;2023-11-21T00:12:31;14.10;76.80
32706;DHT22;19094;50.972;3.538;2023-11-21T00:14:57;14.10;76.70
32706;DHT22;19094;50.972;3.538;2023-11-21T00:17:23;14.10;76.80
32706;DHT22;19094;50.972;3.538;2023-11-21T00:19:50;14.10;76.70
32706;DHT22;19094;50.972;3.538;2023-11-21T00:22:17;14.10;76.60
32706;DHT22;19094;50.972;3.538;2023-11-21T00:24:43;14.10;76.50
32706;DHT22;19094;50.972;3.538;2023-11-21T00:27:09;14.10;76.70
32706;DHT22;19094;50.972;3.538;2023-11-21T00:29:35;14.10;76.70
32706;DHT22;19094;50.972;3.538;2023-11-21T00:32:00;14.10;76.80
32706;DHT22;19094;50.972;3.538;2023-11-21T00:34:26;14.10;76.70
32706;DHT22;19094;50.972;3.538;2023-11-21T00:36:52;14.10;76.70
32706;DHT22;19094;50.972;3.538;2023-11-21T00:39:18;14.10;76.60
32706;DHT22;19094;50.972;3.538;2023-11-21T00:41:43;14.10;76.60
32706;DHT22;19094;50.972;3.538;2023-11-21T00:44:10;14.10;76.70
32706;DHT22;19094;50.972;3.538;2023-11-21T00:46:36;14.00;76.80
32706;DHT22;19094;50.972;3.538;2023-11-21T00:49:02;14.10;76.80
32706;DHT22;19094;50.972;3.538;2023-11-21T00:51:30;14.10;76.70
32706;DHT22;19094;50.972;3.538;2023-11-21T00:53:55;14.10;76.80
32706;DHT22;19094;50.972;3.538;2023-11-21T00:56:21;14.10;76.80
32706;DHT22;19094;50.972;3.538;2023-11-21T00:58:47;14.10;76.60
32706;DHT22;19094;50.972;3.538;2023-11-21T01:01:15;14.10;76.80
32706;DHT22;19094;50.972;3.538;2023-11-21T01:03:41;14.10;76.70
32706;DHT22;19094;50.972;3.538;2023-11-21T01:06:07;14.10;76.60
32706;DHT22;19094;50.972;3.538;2023-11-21T01:08:34;14.10;76.60
32706;DHT22;19094;50.972;3.538;2023-11-21T01:11:01;14.10;76.60
32706;DHT22;19094;50.972;3.538;2023-11-21T01:13:27;14.10;76.60
32706;DHT22;19094;50.972;3.538;2023-11-21T01:15:53;14.10;76.50
32706;DHT22;19094;50.972;3.538;2023-11-21T01:18:19;14.10;76.70
32706;DHT22;19094;50.972;3.538;2023-11-21T01:20:45;14.10;76.50
32706;DHT22;19094;50.972;3.538;2023-11-21T01:23:12;14.10;76.60
32706;DHT22;19094;50.972;3.538;2023-11-21T01:25:38;14.10;76.80
32706;DHT22;19094;50.972;3.538;2023-11-21T01:28:04;14.10;76.70
32706;DHT22;19094;50.972;3.538;2023-11-21T01:30:30;14.10;76.80
32706;DHT22;19094;50.972;3.538;2023-11-21T01:32:55;14.10;76.50
32706;DHT22;19094;50.972;3.538;2023-11-21T01:35:22;14.10;76.70
32706;DHT22;19094;50.972;3.538;2023-11-21T01:37:47;14.10;76.70
32706;DHT22;19094;50.972;3.538;2023-11-21T01:40:14;14.10;76.50
32706;DHT22;19094;50.972;3.538;2023-11-21T01:42:40;14.10;76.60
32706;DHT22;19094;50.972;3.538;2023-11-21T01:45:06;14.10;77.40
32706;DHT22;19094;50.972;3.538;2023-11-21T01:47:34;14.10;77.30
32706;DHT22;19094;50.972;3.538;2023-11-21T01:50:01;14.10;76.50
32706;DHT22;19094;50.972;3.538;2023-11-21T01:52:30;14.10;76.40
32706;DHT22;19094;50.972;3.538;2023-11-21T01:54:56;14.10;76.50
32706;DHT22;19094;50.972;3.538;2023-11-21T01:57:22;14.00;76.50
32706;DHT22;19094;50.972;3.538;2023-11-21T01:59:48;14.10;76.80
32706;DHT22;19094;50.972;3.538;2023-11-21T02:02:15;14.10;76.60
32706;DHT22;19094;50.972;3.538;2023-11-21T02:04:41;14.10;76.70
32706;DHT22;19094;50.972;3.538;2023-11-21T02:07:07;14.00;76.70
32706;DHT22;19094;50.972;3.538;2023-11-21T02:09:33;14.00;76.70
32706;DHT22;19094;50.972;3.538;2023-11-21T02:12:00;14.10;76.60
32706;DHT22;19094;50.972;3.538;2023-11-21T02:14:26;14.00;76.70
32706;DHT22;19094;50.972;3.538;2023-11-21T02:16:53;14.10;76.60
32706;DHT22;19094;50.972;3.538;2023-11-21T02:19:21;14.10;76.50
32706;DHT22;19094;50.972;3.538;2023-11-21T02:21:56;14.10;76.50
32706;DHT22;19094;50.972;3.538;2023-11-21T02:24:26;14.10;76.50
32706;DHT22;19094;50.972;3.538;2023-11-21T02:26:52;14.10;76.50
32706;DHT22;19094;50.972;3.538;2023-11-21T02:29:19;14.10;76.60
32706;DHT22;19094;50.972;3.538;2023-11-21T02:31:48;14.10;76.50
32706;DHT22;19094;50.972;3.538;2023-11-21T02:34:15;14.10;76.50
32706;DHT22;19094;50.972;3.538;2023-11-21T02:36:41;14.10;76.60
32706;DHT22;19094;50.972;3.538;2023-11-21T02:39:08;14.10;76.50
32706;DHT22;19094;50.972;3.538;2023-11-21T02:41:33;14.10;77.10
32706;DHT22;19094;50.972;3.538;2023-11-21T02:44:00;14.10;76.40
32706;DHT22;19094;50.972;3.538;2023-11-21T02:46:26;14.10;76.40
32706;DHT22;19094;50.972;3.538;2023-11-21T02:48:52;14.10;76.50
32706;DHT22;19094;50.972;3.538;2023-11-21T02:51:21;14.10;76.50
32706;DHT22;19094;50.972;3.538;2023-11-21T02:53:48;14.10;76.60
32706;DHT22;19094;50.972;3.538;2023-11-21T02:56:13;14.00;76.60
32706;DHT22;19094;50.972;3.538;2023-11-21T02:58:41;14.10;76.60
32706;DHT22;19094;50.972;3.538;2023-11-21T03:01:09;14.10;76.70
32706;DHT22;19094;50.972;3.538;2023-11-21T03:03:35;14.10;76.50
32706;DHT22;19094;50.972;3.538;2023-11-21T03:06:06;14.00;76.50
32706;DHT22;19094;50.972;3.538;2023-11-21T03:08:32;14.10;76.80
32706;DHT22;19094;50.972;3.538;2023-11-21T03:10:58;14.00;76.70
32706;DHT22;19094;50.972;3.538;2023-11-21T03:13:23;14.00;76.70
32706;DHT22;19094;50.972;3.538;2023-11-21T03:15:49;14.10;76.60
32706;DHT22;19094;50.972;3.538;2023-11-21T03:18:15;14.10;76.50
32706;DHT22;19094;50.972;3.538;2023-11-21T03:20:41;14.10;76.60
32706;DHT22;19094;50.972;3.538;2023-11-21T03:23:07;14.10;76.60
32706;DHT22;19094;50.972;3.538;2023-11-21T03:25:32;14.10;76.50
32706;DHT22;19094;50.972;3.538;2023-11-21T03:27:58;14.00;76.70
32706;DHT22;19094;50.972;3.538;2023-11-21T03:30:24;14.10;76.80
32706;DHT22;19094;50.972;3.538;2023-11-21T03:32:49;14.10;76.70
32706;DHT22;19094;50.972;3.538;2023-11-21T03:35:15;14.10;76.60
32706;DHT22;19094;50.972;3.538;2023-11-21T03:37:40;14.10;76.70
32706;DHT22;19094;50.972;3.538;2023-11-21T03:40:07;14.10;76.70
32706;DHT22;19094;50.972;3.538;2023-11-21T03:42:34;14.10;76.60
32706;DHT22;19094;50.972;3.538;2023-11-21T03:45:00;14.10;76.70
32706;DHT22;19094;50.972;3.538;2023-11-21T03:47:27;14.10;76.60
32706;DHT22;19094;50.972;3.538;2023-11-21T03:49:53;14.20;76.70
32706;DHT22;19094;50.972;3.538;2023-11-21T03:52:19;14.10;76.60
32706;DHT22;19094;50.972;3.538;2023-11-21T03:54:44;14.10;76.80
32706;DHT22;19094;50.972;3.538;2023-11-21T03:57:11;14.10;76.80
32706;DHT22;19094;50.972;3.538;2023-11-21T03:59:40;14.10;76.80
32706;DHT22;19094;50.972;3.538;2023-11-21T04:02:06;14.10;76.80
32706;DHT22;19094;50.972;3.538;2023-11-21T04:04:33;14.10;76.80
32706;DHT22;19094;50.972;3.538;2023-11-21T04:06:59;14.10;76.90
32706;DHT22;19094;50.972;3.538;2023-11-21T04:09:25;14.10;76.80
32706;DHT22;19094;50.972;3.538;2023-11-21T04:11:51;14.10;76.80
32706;DHT22;19094;50.972;3.538;2023-11-21T04:14:17;14.10;76.80
32706;DHT22;19094;50.972;3.538;2023-11-21T04:16:43;14.10;76.90
32706;DHT22;19094;50.972;3.538;2023-11-21T04:19:09;14.10;77.00
32706;DHT22;19094;50.972;3.538;2023-11-21T04:21:43;14.10;76.90
32706;DHT22;19094;50.972;3.538;2023-11-21T04:24:09;14.10;76.80
32706;DHT22;19094;50.972;3.538;2023-11-21T04:26:35;14.10;76.80
32706;DHT22;19094;50.972;3.538;2023-11-21T04:29:01;14.10;76.90
32706;DHT22;19094;50.972;3.538;2023-11-21T04:31:27;14.10;76.80
32706;DHT22;19094;50.972;3.538;2023-11-21T04:33:52;14.10;76.90
32706;DHT22;19094;50.972;3.538;2023-11-21T04:36:19;14.10;76.90
32706;DHT22;19094;50.972;3.538;2023-11-21T04:38:45;14.10;77.00
32706;DHT22;19094;50.972;3.538;2023-11-21T04:41:11;14.10;77.00
32706;DHT22;19094;50.972;3.538;2023-11-21T04:43:37;14.10;77.00
32706;DHT22;19094;50.972;3.538;2023-11-21T04:46:03;14.10;76.90
32706;DHT22;19094;50.972;3.538;2023-11-21T04:48:28;14.10;77.00
32706;DHT22;19094;50.972;3.538;2023-11-21T04:50:54;14.10;77.10
32706;DHT22;19094;50.972;3.538;2023-11-21T04:53:20;14.10;77.00
32706;DHT22;19094;50.972;3.538;2023-11-21T04:55:45;14.10;77.00
32706;DHT22;19094;50.972;3.538;2023-11-21T04:58:12;14.10;77.00
32706;DHT22;19094;50.972;3.538;2023-11-21T05:00:37;14.10;77.00
32706;DHT22;19094;50.972;3.538;2023-11-21T05:03:03;14.10;77.10
32706;DHT22;19094;50.972;3.538;2023-11-21T05:05:30;14.10;77.10
32706;DHT22;19094;50.972;3.538;2023-11-21T05:07:56;14.10;77.00
32706;DHT22;19094;50.972;3.538;2023-11-21T05:10:22;14.20;77.00
32706;DHT22;19094;50.972;3.538;2023-11-21T05:12:48;14.10;77.10
32706;DHT22;19094;50.972;3.538;2023-11-21T05:15:16;14.20;77.10
32706;DHT22;19094;50.972;3.538;2023-11-21T05:17:43;14.20;77.10
32706;DHT22;19094;50.972;3.538;2023-11-21T05:20:14;14.20;77.20
32706;DHT22;19094;50.972;3.538;2023-11-21T05:22:43;14.20;77.10
32706;DHT22;19094;50.972;3.538;2023-11-21T05:25:09;14.10;77.40
32706;DHT22;19094;50.972;3.538;2023-11-21T05:27:35;14.10;77.30
32706;DHT22;19094;50.972;3.538;2023-11-21T05:30:02;14.10;77.30
32706;DHT22;19094;50.972;3.538;2023-11-21T05:32:31;14.10;77.30
32706;DHT22;19094;50.972;3.538;2023-11-21T05:34:56;14.20;77.30
32706;DHT22;19094;50.972;3.538;2023-11-21T05:37:22;14.20;77.30
32706;DHT22;19094;50.972;3.538;2023-11-21T05:39:49;14.20;77.40
32706;DHT22;19094;50.972;3.538;2023-11-21T05:42:15;14.20;77.40
32706;DHT22;19094;50.972;3.538;2023-11-21T05:44:42;14.20;77.40
32706;DHT22;19094;50.972;3.538;2023-11-21T05:47:12;14.10;77.30
32706;DHT22;19094;50.972;3.538;2023-11-21T05:49:39;14.20;77.30
32706;DHT22;19094;50.972;3.538;2023-11-21T05:52:05;14.20;77.40
32706;DHT22;19094;50.972;3.538;2023-11-21T05:54:31;14.10;77.80
32706;DHT22;19094;50.972;3.538;2023-11-21T05:56:56;14.20;77.40
32706;DHT22;19094;50.972;3.538;2023-11-21T05:59:23;14.20;77.40
32706;DHT22;19094;50.972;3.538;2023-11-21T06:01:48;14.20;77.40
32706;DHT22;19094;50.972;3.538;2023-11-21T06:04:14;14.20;77.40
32706;DHT22;19094;50.972;3.538;2023-11-21T06:06:40;14.20;77.20
32706;DHT22;19094;50.972;3.538;2023-11-21T06:09:05;14.20;77.20
32706;DHT22;19094;50.972;3.538;2023-11-21T06:11:34;14.20;77.20
32706;DHT22;19094;50.972;3.538;2023-11-21T06:14:00;14.20;77.20
32706;DHT22;19094;50.972;3.538;2023-11-21T06:16:25;14.20;77.30
32706;DHT22;19094;50.972;3.538;2023-11-21T06:18:51;14.20;77.40
32706;DHT22;19094;50.972;3.538;2023-11-21T06:21:16;14.10;77.30
32706;DHT22;19094;50.972;3.538;2023-11-21T06:23:43;14.20;77.40
32706;DHT22;19094;50.972;3.538;2023-11-21T06:26:09;14.20;77.40
32706;DHT22;19094;50.972;3.538;2023-11-21T06:28:35;14.20;77.50
32706;DHT22;19094;50.972;3.538;2023-11-21T06:31:02;14.20;77.40
32706;DHT22;19094;50.972;3.538;2023-11-21T06:33:31;14.20;77.30
32706;DHT22;19094;50.972;3.538;2023-11-21T06:35:57;14.10;77.50
32706;DHT22;19094;50.972;3.538;2023-11-21T06:38:23;14.10;77.60
32706;DHT22;19094;50.972;3.538;2023-11-21T06:40:48;14.10;77.70
32706;DHT22;19094;50.972;3.538;2023-11-21T06:43:14;14.10;77.80
32706;DHT22;19094;50.972;3.538;2023-11-21T06:45:40;14.10;77.80
32706;DHT22;19094;50.972;3.538;2023-11-21T06:48:06;14.10;77.80
32706;DHT22;19094;50.972;3.538;2023-11-21T06:50:32;14.10;77.70
32706;DHT22;19094;50.972;3.538;2023-11-21T06:52:57;14.20;77.60
32706;DHT22;19094;50.972;3.538;2023-11-21T06:55:24;14.10;77.60
32706;DHT22;19094;50.972;3.538;2023-11-21T06:57:50;14.20;77.60
32706;DHT22;19094;50.972;3.538;2023-11-21T07:00:17;14.10;77.60
32706;DHT22;19094;50.972;3.538;2023-11-21T07:02:44;14.20;77.90
32706;DHT22;19094;50.972;3.538;2023-11-21T07:05:10;14.20;77.80
32706;DHT22;19094;50.972;3.538;2023-11-21T07:07:36;14.30;77.60
32706;DHT22;19094;50.972;3.538;2023-11-21T07:10:03;14.20;77.60
32706;DHT22;19094;50.972;3.538;2023-11-21T07:12:32;14.20;77.60
32706;DHT22;19094;50.972;3.538;2023-11-21T07:14:58;14.20;77.70
32706;DHT22;19094;50.972;3.538;2023-11-21T07:17:24;14.20;77.60
32706;DHT22;19094;50.972;3.538;2023-11-21T07:19:50;14.20;77.50
32706;DHT22;19094;50.972;3.538;2023-11-21T07:22:16;14.20;77.40
32706;DHT22;19094;50.972;3.538;2023-11-21T07:24:49;14.30;77.50
32706;DHT22;19094;50.972;3.538;2023-11-21T07:27:18;14.20;77.50
32706;DHT22;19094;50.972;3.538;2023-11-21T07:29:44;14.20;77.50
32706;DHT22;19094;50.972;3.538;2023-11-21T07:32:10;14.20;77.70
32706;DHT22;19094;50.972;3.538;2023-11-21T07:34:37;14.30;77.40
32706;DHT22;19094;50.972;3.538;2023-11-21T07:37:03;14.20;78.00
32706;DHT22;19094;50.972;3.538;2023-11-21T07:39:29;14.10;78.20
32706;DHT22;19094;50.972;3.538;2023-11-21T07:41:55;14.10;78.30
32706;DHT22;19094;50.972;3.538;2023-11-21T07:44:21;14.10;78.30
32706;DHT22;19094;50.972;3.538;2023-11-21T07:46:48;14.20;78.10
32706;DHT22;19094;50.972;3.538;2023-11-21T07:49:15;14.10;78.10
32706;DHT22;19094;50.972;3.538;2023-11-21T07:51:43;14.20;78.00
32706;DHT22;19094;50.972;3.538;2023-11-21T07:54:09;14.20;78.10
32706;DHT22;19094;50.972;3.538;2023-11-21T07:56:35;14.20;78.00
32706;DHT22;19094;50.972;3.538;2023-11-21T07:59:01;14.20;78.20
32706;DHT22;19094;50.972;3.538;2023-11-21T08:01:27;14.20;78.00
32706;DHT22;19094;50.972;3.538;2023-11-21T08:03:54;14.20;77.80
32706;DHT22;19094;50.972;3.538;2023-11-21T08:06:25;14.20;77.80
32706;DHT22;19094;50.972;3.538;2023-11-21T08:08:51;14.20;78.10
32706;DHT22;19094;50.972;3.538;2023-11-21T08:11:17;14.20;78.20
32706;DHT22;19094;50.972;3.538;2023-11-21T08:13:42;14.20;78.20
32706;DHT22;19094;50.972;3.538;2023-11-21T08:16:08;14.30;78.90
32706;DHT22;19094;50.972;3.538;2023-11-21T08:18:34;14.20;78.20
32706;DHT22;19094;50.972;3.538;2023-11-21T08:21:00;14.20;78.20
32706;DHT22;19094;50.972;3.538;2023-11-21T08:23:26;14.30;78.10
32706;DHT22;19094;50.972;3.538;2023-11-21T08:25:53;14.30;78.10
32706;DHT22;19094;50.972;3.538;2023-11-21T08:28:19;14.20;78.20
32706;DHT22;19094;50.972;3.538;2023-11-21T08:30:47;14.30;78.20
32706;DHT22;19094;50.972;3.538;2023-11-21T08:33:13;14.30;78.10
32706;DHT22;19094;50.972;3.538;2023-11-21T08:35:39;14.30;78.00
32706;DHT22;19094;50.972;3.538;2023-11-21T08:38:05;14.30;78.10
32706;DHT22;19094;50.972;3.538;2023-11-21T08:40:30;14.30;78.20
32706;DHT22;19094;50.972;3.538;2023-11-21T08:42:57;14.30;78.10
32706;DHT22;19094;50.972;3.538;2023-11-21T08:45:24;14.30;78.10
32706;DHT22;19094;50.972;3.538;2023-11-21T08:47:51;14.40;77.90
32706;DHT22;19094;50.972;3.538;2023-11-21T08:50:17;14.50;77.80
32706;DHT22;19094;50.972;3.538;2023-11-21T08:52:44;14.40;77.60
32706;DHT22;19094;50.972;3.538;2023-11-21T08:55:11;14.50;77.70
32706;DHT22;19094;50.972;3.538;2023-11-21T08:57:41;14.50;77.50
32706;DHT22;19094;50.972;3.538;2023-11-21T09:00:10;14.50;77.50
32706;DHT22;19094;50.972;3.538;2023-11-21T09:02:41;14.50;77.50
32706;DHT22;19094;50.972;3.538;2023-11-21T09:05:11;14.50;77.60
32706;DHT22;19094;50.972;3.538;2023-11-21T09:07:37;14.50;77.50
32706;DHT22;19094;50.972;3.538;2023-11-21T09:10:04;14.60;77.40
32706;DHT22;19094;50.972;3.538;2023-11-21T09:12:33;14.60;77.30
32706;DHT22;19094;50.972;3.538;2023-11-21T09:15:02;14.60;77.30
32706;DHT22;19094;50.972;3.538;2023-11-21T09:17:28;14.60;77.30
32706;DHT22;19094;50.972;3.538;2023-11-21T09:19:53;14.60;77.40
32706;DHT22;19094;50.972;3.538;2023-11-21T09:22:19;14.60;77.30
32706;DHT22;19094;50.972;3.538;2023-11-21T09:24:45;14.70;77.30
32706;DHT22;19094;50.972;3.538;2023-11-21T09:27:10;14.70;77.10
32706;DHT22;19094;50.972;3.538;2023-11-21T09:29:36;14.70;77.10
32706;DHT22;19094;50.972;3.538;2023-11-21T09:32:05;14.70;77.00
32706;DHT22;19094;50.972;3.538;2023-11-21T09:34:33;14.70;77.00
32706;DHT22;19094;50.972;3.538;2023-11-21T09:36:58;14.80;77.10
32706;DHT22;19094;50.972;3.538;2023-11-21T09:39:24;14.70;77.10
32706;DHT22;19094;50.972;3.538;2023-11-21T09:41:52;14.80;76.90
32706;DHT22;19094;50.972;3.538;2023-11-21T09:44:38;14.90;76.80
32706;DHT22;19094;50.972;3.538;2023-11-21T09:47:09;14.90;76.60
32706;DHT22;19094;50.972;3.538;2023-11-21T09:49:37;14.90;76.60
32706;DHT22;19094;50.972;3.538;2023-11-21T09:52:04;15.00;76.40
32706;DHT22;19094;50.972;3.538;2023-11-21T09:54:34;15.00;76.40
32706;DHT22;19094;50.972;3.538;2023-11-21T09:57:00;15.10;76.30
32706;DHT22;19094;50.972;3.538;2023-11-21T09:59:30;15.10;76.10
32706;DHT22;19094;50.972;3.538;2023-11-21T10:02:01;15.00;76.00
32706;DHT22;19094;50.972;3.538;2023-11-21T10:04:28;15.00;76.30
32706;DHT22;19094;50.972;3.538;2023-11-21T10:06:54;15.00;76.40
32706;DHT22;19094;50.972;3.538;2023-11-21T10:09:21;15.00;76.30
32706;DHT22;19094;50.972;3.538;2023-11-21T10:11:49;15.10;76.30
32706;DHT22;19094;50.972;3.538;2023-11-21T10:14:19;15.00;76.30
32706;DHT22;19094;50.972;3.538;2023-11-21T10:16:48;15.00;76.30
32706;DHT22;19094;50.972;3.538;2023-11-21T10:19:14;15.00;77.00
32706;DHT22;19094;50.972;3.538;2023-11-21T10:21:41;14.90;76.50
32706;DHT22;19094;50.972;3.538;2023-11-21T10:24:07;14.90;76.80
32706;DHT22;19094;50.972;3.538;2023-11-21T10:26:33;14.90;76.80
32706;DHT22;19094;50.972;3.538;2023-11-21T10:29:01;14.90;76.80
32706;DHT22;19094;50.972;3.538;2023-11-21T10:31:29;14.90;76.80
32706;DHT22;19094;50.972;3.538;2023-11-21T10:34:16;14.90;76.80
32706;DHT22;19094;50.972;3.538;2023-11-21T10:36:43;14.90;77.00
32706;DHT22;19094;50.972;3.538;2023-11-21T10:39:08;14.90;76.90
32706;DHT22;19094;50.972;3.538;2023-11-21T10:41:37;14.90;77.00
32706;DHT22;19094;50.972;3.538;2023-11-21T10:44:03;14.90;76.90
32706;DHT22;19094;50.972;3.538;2023-11-21T10:46:32;14.80;77.00
32706;DHT22;19094;50.972;3.538;2023-11-21T10:48:59;14.90;76.90
32706;DHT22;19094;50.972;3.538;2023-11-21T10:51:25;14.90;76.50
32706;DHT22;19094;50.972;3.538;2023-11-21T10:53:54;14.90;76.70
32706;DHT22;19094;50.972;3.538;2023-11-21T10:56:23;14.90;76.50
32706;DHT22;19094;50.972;3.538;2023-11-21T10:58:49;15.00;76.30
32706;DHT22;19094;50.972;3.538;2023-11-21T11:01:18;15.00;76.00
32706;DHT22;19094;50.972;3.538;2023-11-21T11:03:47;15.10;75.90
32706;DHT22;19094;50.972;3.538;2023-11-21T11:06:13;15.20;75.90
32706;DHT22;19094;50.972;3.538;2023-11-21T11:08:40;15.10;75.60
32706;DHT22;19094;50.972;3.538;2023-11-21T11:11:06;15.10;75.40
32706;DHT22;19094;50.972;3.538;2023-11-21T11:13:33;15.20;75.50
32706;DHT22;19094;50.972;3.538;2023-11-21T11:16:00;15.20;75.40
32706;DHT22;19094;50.972;3.538;2023-11-21T11:18:30;15.20;75.50
32706;DHT22;19094;50.972;3.538;2023-11-21T11:21:20;15.20;75.40
32706;DHT22;19094;50.972;3.538;2023-11-21T11:24:11;15.20;75.00
32706;DHT22;19094;50.972;3.538;2023-11-21T11:26:59;15.20;75.10
32706;DHT22;19094;50.972;3.538;2023-11-21T11:30:05;15.30;75.20
32706;DHT22;19094;50.972;3.538;2023-11-21T11:32:49;15.30;75.00
32706;DHT22;19094;50.972;3.538;2023-11-21T11:35:36;15.20;75.10
32706;DHT22;19094;50.972;3.538;2023-11-21T11:38:03;15.30;75.10
32706;DHT22;19094;50.972;3.538;2023-11-21T11:40:45;15.30;75.00
32706;DHT22;19094;50.972;3.538;2023-11-21T11:43:11;15.30;74.50
32706;DHT22;19094;50.972;3.538;2023-11-21T11:45:37;15.40;74.50
32706;DHT22;19094;50.972;3.538;2023-11-21T11:48:17;15.40;74.30
32706;DHT22;19094;50.972;3.538;2023-11-21T11:51:01;15.40;75.10
32706;DHT22;19094;50.972;3.538;2023-11-21T11:53:35;15.40;74.40
32706;DHT22;19094;50.972;3.538;2023-11-21T11:56:30;15.50;74.50
32706;DHT22;19094;50.972;3.538;2023-11-21T11:58:59;15.50;73.80
32706;DHT22;19094;50.972;3.538;2023-11-21T12:01:26;15.60;74.90
32706;DHT22;19094;50.972;3.538;2023-11-21T12:06:41;16.50;71.50
32706;DHT22;19094;50.972;3.538;2023-11-21T12:09:20;16.70;69.90
32706;DHT22;19094;50.972;3.538;2023-11-21T12:11:47;16.80;69.70
32706;DHT22;19094;50.972;3.538;2023-11-21T12:14:17;16.90;69.40
32706;DHT22;19094;50.972;3.538;2023-11-21T12:16:43;16.90;69.30
32706;DHT22;19094;50.972;3.538;2023-11-21T12:19:12;16.70;68.90
32706;DHT22;19094;50.972;3.538;2023-11-21T12:21:39;16.30;70.50
32706;DHT22;19094;50.972;3.538;2023-11-21T12:24:08;16.10;71.40
32706;DHT22;19094;50.972;3.538;2023-11-21T12:26:39;15.90;71.80
32706;DHT22;19094;50.972;3.538;2023-11-21T12:29:05;15.80;72.40
32706;DHT22;19094;50.972;3.538;2023-11-21T12:31:33;15.90;73.50
32706;DHT22;19094;50.972;3.538;2023-11-21T12:34:00;15.80;73.20
32706;DHT22;19094;50.972;3.538;2023-11-21T12:36:26;15.80;73.00
32706;DHT22;19094;50.972;3.538;2023-11-21T12:38:52;15.70;72.80
32706;DHT22;19094;50.972;3.538;2023-11-21T12:41:17;15.70;72.90
32706;DHT22;19094;50.972;3.538;2023-11-21T12:43:43;15.70;72.80
32706;DHT22;19094;50.972;3.538;2023-11-21T12:46:10;15.60;73.00
32706;DHT22;19094;50.972;3.538;2023-11-21T12:48:43;15.60;73.60
32706;DHT22;19094;50.972;3.538;2023-11-21T12:51:12;15.60;74.00
32706;DHT22;19094;50.972;3.538;2023-11-21T12:53:39;15.60;73.70
32706;DHT22;19094;50.972;3.538;2023-11-21T12:56:07;15.60;73.40
32706;DHT22;19094;50.972;3.538;2023-11-21T12:58:35;15.50;73.80
32706;DHT22;19094;50.972;3.538;2023-11-21T13:01:01;15.40;73.90
32706;DHT22;19094;50.972;3.538;2023-11-21T13:03:29;15.40;74.00
32706;DHT22;19094;50.972;3.538;2023-11-21T13:05:55;15.40;73.90
32706;DHT22;19094;50.972;3.538;2023-11-21T13:08:24;15.40;74.10
32706;DHT22;19094;50.972;3.538;2023-11-21T13:10:53;15.30;74.90
32706;DHT22;19094;50.972;3.538;2023-11-21T13:13:20;15.30;74.30
32706;DHT22;19094;50.972;3.538;2023-11-21T13:15:53;15.40;74.10
32706;DHT22;19094;50.972;3.538;2023-11-21T13:18:25;15.50;73.60
32706;DHT22;19094;50.972;3.538;2023-11-21T13:20:59;15.70;73.10
32706;DHT22;19094;50.972;3.538;2023-11-21T13:23:26;16.30;72.00
32706;DHT22;19094;50.972;3.538;2023-11-21T13:25:54;16.90;69.50
32706;DHT22;19094;50.972;3.538;2023-11-21T13:28:20;17.60;67.40
32706;DHT22;19094;50.972;3.538;2023-11-21T13:30:49;18.00;65.30
32706;DHT22;19094;50.972;3.538;2023-11-21T13:33:17;18.20;64.10
32706;DHT22;19094;50.972;3.538;2023-11-21T13:35:47;18.10;63.50
32706;DHT22;19094;50.972;3.538;2023-11-21T13:38:16;18.10;63.90
32706;DHT22;19094;50.972;3.538;2023-11-21T13:40:47;17.90;64.10
32706;DHT22;19094;50.972;3.538;2023-11-21T13:43:15;17.80;64.30
32706;DHT22;19094;50.972;3.538;2023-11-21T13:45:43;17.70;64.70
32706;DHT22;19094;50.972;3.538;2023-11-21T13:48:10;17.50;65.20
32706;DHT22;19094;50.972;3.538;2023-11-21T13:50:43;17.20;66.00
32706;DHT22;19094;50.972;3.538;2023-11-21T13:53:29;16.80;67.50
32706;DHT22;19094;50.972;3.538;2023-11-21T13:55:55;16.50;69.10
32706;DHT22;19094;50.972;3.538;2023-11-21T13:58:23;16.30;70.10
32706;DHT22;19094;50.972;3.538;2023-11-21T14:01:00;16.10;70.70
32706;DHT22;19094;50.972;3.538;2023-11-21T14:03:27;16.00;71.10
32706;DHT22;19094;50.972;3.538;2023-11-21T14:06:05;16.00;71.40
32706;DHT22;19094;50.972;3.538;2023-11-21T14:08:40;15.80;71.80
32706;DHT22;19094;50.972;3.538;2023-11-21T14:11:07;15.80;71.90
32706;DHT22;19094;50.972;3.538;2023-11-21T14:13:33;15.70;72.20
32706;DHT22;19094;50.972;3.538;2023-11-21T14:15:59;15.70;72.80
32706;DHT22;19094;50.972;3.538;2023-11-21T14:18:28;15.70;72.80
32706;DHT22;19094;50.972;3.538;2023-11-21T14:21:04;15.60;72.70
32706;DHT22;19094;50.972;3.538;2023-11-21T14:23:31;15.60;72.90
32706;DHT22;19094;50.972;3.538;2023-11-21T14:25:58;15.60;73.10
32706;DHT22;19094;50.972;3.538;2023-11-21T14:28:26;15.60;73.00
32706;DHT22;19094;50.972;3.538;2023-11-21T14:30:52;15.60;72.90
32706;DHT22;19094;50.972;3.538;2023-11-21T14:33:18;15.60;72.90
32706;DHT22;19094;50.972;3.538;2023-11-21T14:35:43;15.50;72.90
32706;DHT22;19094;50.972;3.538;2023-11-21T14:38:10;15.50;73.10
32706;DHT22;19094;50.972;3.538;2023-11-21T14:40:36;15.50;73.00
32706;DHT22;19094;50.972;3.538;2023-11-21T14:43:02;15.50;72.90
32706;DHT22;19094;50.972;3.538;2023-11-21T14:45:32;15.50;73.20
32706;DHT22;19094;50.972;3.538;2023-11-21T14:47:58;15.50;73.90
32706;DHT22;19094;50.972;3.538;2023-11-21T14:50:42;15.40;73.60
32706;DHT22;19094;50.972;3.538;2023-11-21T14:53:11;15.40;73.20
32706;DHT22;19094;50.972;3.538;2023-11-21T14:55:39;15.40;73.00
32706;DHT22;19094;50.972;3.538;2023-11-21T14:58:14;15.40;73.20
32706;DHT22;19094;50.972;3.538;2023-11-21T15:00:45;15.40;73.10
32706;DHT22;19094;50.972;3.538;2023-11-21T15:03:12;15.40;73.30
32706;DHT22;19094;50.972;3.538;2023-11-21T15:06:02;15.40;73.00
32706;DHT22;19094;50.972;3.538;2023-11-21T15:08:51;15.40;73.00
32706;DHT22;19094;50.972;3.538;2023-11-21T15:11:22;15.40;73.10
32706;DHT22;19094;50.972;3.538;2023-11-21T15:13:56;15.40;73.30
32706;DHT22;19094;50.972;3.538;2023-11-21T15:16:22;15.40;73.20
32706;DHT22;19094;50.972;3.538;2023-11-21T15:18:49;15.40;73.20
32706;DHT22;19094;50.972;3.538;2023-11-21T15:21:15;15.40;73.10
32706;DHT22;19094;50.972;3.538;2023-11-21T15:23:40;15.40;73.40
32706;DHT22;19094;50.972;3.538;2023-11-21T15:26:07;15.40;73.40
32706;DHT22;19094;50.972;3.538;2023-11-21T15:28:35;15.40;73.10
32706;DHT22;19094;50.972;3.538;2023-11-21T15:31:01;15.30;73.20
32706;DHT22;19094;50.972;3.538;2023-11-21T15:33:28;15.40;73.30
32706;DHT22;19094;50.972;3.538;2023-11-21T15:35:54;15.40;73.10